Time;durP1;ratioP1;P1;durP2;ratioP2;P2;SDS_P1;SDS_P2;PMS_P1;PMS_P2;Temp;Humidity;BMP_temperature;BMP_pressure;BME280_temperature;BME280_humidity;BME280_pressure;Samples;Min_cycle;Max_cycle;Signal;HPM_P1;HPM_P2
2022/03/30 00:00:46;;;;;;;5.95;5.25;;;;;;;;;;5069758;28;20024;-53
2022/03/30 00:03:11;;;;;;;7.03;6.22;;;;;;;;;;5071415;28;20039;-52
2022/03/30 00:05:38;;;;;;;10.50;5.30;;;;;;;;;;5070233;28;20146;-54
2022/03/30 00:08:05;;;;;;;8.00;6.20;;;;;;;;;;5071660;28;20728;-52
2022/03/30 00:10:30;;;;;;;5.68;5.18;;;;;;;;;;5066728;28;20037;-52
2022/03/30 00:12:56;;;;;;;5.82;5.20;;;;;;;;;;5069771;28;20036;-54
2022/03/30 00:15:24;;;;;;;6.35;5.22;;;;;;;;;;5070039;28;20069;-51
2022/03/30 00:17:49;;;;;;;5.60;5.10;;;;;;;;;;5066590;28;20032;-52
2022/03/30 00:20:15;;;;;;;6.25;5.55;;;;;;;;;;5068599;28;20067;-51
2022/03/30 00:22:40;;;;;;;5.53;5.13;;;;;;;;;;5070488;28;20060;-54
2022/03/30 00:25:10;;;;;;;5.18;4.68;;;;;;;;;;5072114;28;20428;-53
2022/03/30 00:27:36;;;;;;;6.40;5.72;;;;;;;;;;5073948;28;20112;-53
2022/03/30 00:30:03;;;;;;;5.35;4.90;;;;;;;;;;5071151;28;20122;-52
2022/03/30 00:32:29;;;;;;;6.90;5.30;;;;;;;;;;5071080;28;20029;-52
2022/03/30 00:34:54;;;;;;;6.32;5.82;;;;;;;;;;5070620;28;20039;-54
2022/03/30 00:37:19;;;;;;;6.50;5.90;;;;;;;;;;5069993;28;20430;-53
2022/03/30 00:39:45;;;;;;;6.38;5.72;;;;;;;;;;5072159;28;20033;-53
2022/03/30 00:42:15;;;;;;;5.68;5.15;;;;;;;;;;5068644;28;20032;-54
2022/03/30 00:44:40;;;;;;;5.65;5.15;;;;;;;;;;5072634;28;20029;-50
2022/03/30 00:47:22;;;;;;;5.75;5.25;;;;;;;;;;5072208;28;20351;-52
2022/03/30 00:49:48;;;;;;;8.65;6.82;;;;;;;;;;5066527;28;20138;-53
2022/03/30 00:52:16;;;;;;;6.60;6.00;;;;;;;;;;5071429;28;20032;-52
2022/03/30 00:54:43;;;;;;;5.78;5.28;;;;;;;;;;5071463;28;20028;-52
2022/03/30 00:57:10;;;;;;;9.07;6.20;;;;;;;;;;5069119;28;20028;-51
2022/03/30 00:59:36;;;;;;;6.22;5.13;;;;;;;;;;5070025;28;20021;-54
2022/03/30 01:02:02;;;;;;;5.45;4.95;;;;;;;;;;5069802;28;20448;-54
2022/03/30 01:04:29;;;;;;;6.93;6.28;;;;;;;;;;5076888;28;20484;-54
2022/03/30 01:06:54;;;;;;;6.18;5.57;;;;;;;;;;5075248;28;20032;-51
2022/03/30 01:09:20;;;;;;;7.18;6.50;;;;;;;;;;5078711;28;20800;-53
2022/03/30 01:11:47;;;;;;;6.57;5.30;;;;;;;;;;5071062;28;20458;-54
2022/03/30 01:14:13;;;;;;;7.32;5.40;;;;;;;;;;5073879;28;20028;-52
2022/03/30 01:16:40;;;;;;;7.85;7.05;;;;;;;;;;5073750;28;20047;-52
2022/03/30 01:19:07;;;;;;;8.82;6.10;;;;;;;;;;5074358;28;20476;-51
2022/03/30 01:21:37;;;;;;;7.55;5.72;;;;;;;;;;5076685;28;20685;-54
2022/03/30 01:24:03;;;;;;;8.35;6.63;;;;;;;;;;5059330;28;20102;-54
2022/03/30 01:26:29;;;;;;;6.75;6.15;;;;;;;;;;5075218;28;20532;-54
2022/03/30 01:28:55;;;;;;;7.60;6.05;;;;;;;;;;5073291;28;20028;-54
2022/03/30 01:34:05;;;;;;;7.63;6.95;;;;;;;;;;5073839;28;20117;-54
2022/03/30 01:36:30;;;;;;;11.32;6.10;;;;;;;;;;5074904;28;20085;-51
2022/03/30 01:38:55;;;;;;;7.32;6.72;;;;;;;;;;5072813;28;20399;-50
2022/03/30 01:41:21;;;;;;;5.55;5.15;;;;;;;;;;5072960;28;20024;-53
2022/03/30 01:43:46;;;;;;;7.13;6.43;;;;;;;;;;5071048;28;20547;-52
2022/03/30 01:46:12;;;;;;;6.40;5.80;;;;;;;;;;5075238;28;20039;-53
2022/03/30 01:48:37;;;;;;;7.55;6.75;;;;;;;;;;5073285;28;20032;-53
2022/03/30 01:51:03;;;;;;;6.78;6.05;;;;;;;;;;5073417;28;20047;-53
2022/03/30 01:53:28;;;;;;;8.55;7.55;;;;;;;;;;5070780;28;20036;-51
2022/03/30 01:55:53;;;;;;;6.82;6.13;;;;;;;;;;5069476;28;20459;-54
2022/03/30 01:58:19;;;;;;;10.13;7.00;;;;;;;;;;5071847;28;20589;-51
2022/03/30 02:00:45;;;;;;;7.95;7.35;;;;;;;;;;5071356;28;20052;-54
2022/03/30 02:03:12;;;;;;;6.93;6.35;;;;;;;;;;5072552;28;20051;-52
2022/03/30 02:05:38;;;;;;;7.15;6.45;;;;;;;;;;5071794;28;20050;-55
2022/03/30 02:08:04;;;;;;;7.90;7.20;;;;;;;;;;5070033;28;20036;-52
2022/03/30 02:10:29;;;;;;;8.40;7.65;;;;;;;;;;5065865;28;20037;-53
2022/03/30 02:12:55;;;;;;;8.10;7.40;;;;;;;;;;5071340;28;20085;-54
2022/03/30 02:15:22;;;;;;;7.63;7.03;;;;;;;;;;5070692;28;20107;-55
2022/03/30 02:17:48;;;;;;;9.23;8.43;;;;;;;;;;5072423;28;20503;-55
2022/03/30 02:20:13;;;;;;;7.85;7.13;;;;;;;;;;5073271;28;20060;-54
2022/03/30 02:22:40;;;;;;;8.57;7.78;;;;;;;;;;5076734;28;20037;-54
2022/03/30 02:25:05;;;;;;;8.77;8.07;;;;;;;;;;5072426;28;20028;-55
2022/03/30 02:27:31;;;;;;;14.80;9.38;;;;;;;;;;5069852;28;20101;-52
2022/03/30 02:29:56;;;;;;;10.68;8.55;;;;;;;;;;5069177;28;20040;-52
2022/03/30 02:32:22;;;;;;;10.00;8.27;;;;;;;;;;5070959;28;20032;-55
2022/03/30 02:34:48;;;;;;;7.70;7.10;;;;;;;;;;5068866;28;20031;-55
2022/03/30 02:37:13;;;;;;;8.35;7.65;;;;;;;;;;5072529;28;20044;-54
2022/03/30 02:39:39;;;;;;;8.85;7.95;;;;;;;;;;5071456;28;20123;-54
2022/03/30 02:42:07;;;;;;;8.95;8.02;;;;;;;;;;5071927;28;20040;-56
2022/03/30 02:44:34;;;;;;;9.90;8.98;;;;;;;;;;5070313;28;20388;-55
2022/03/30 02:47:00;;;;;;;8.68;7.45;;;;;;;;;;5069254;28;20046;-58
2022/03/30 02:49:26;;;;;;;6.28;5.78;;;;;;;;;;5069732;28;20020;-58
2022/03/30 02:51:52;;;;;;;6.40;5.80;;;;;;;;;;5055558;28;20067;-58
2022/03/30 02:54:17;;;;;;;10.70;6.80;;;;;;;;;;5071902;28;20024;-56
2022/03/30 02:56:43;;;;;;;6.93;6.32;;;;;;;;;;5071346;28;20468;-58
2022/03/30 02:59:08;;;;;;;7.55;6.78;;;;;;;;;;5068893;28;20039;-57
2022/03/30 03:01:33;;;;;;;7.22;6.53;;;;;;;;;;5073409;28;20596;-58
2022/03/30 03:03:59;;;;;;;7.63;6.90;;;;;;;;;;5072692;28;20036;-58
2022/03/30 03:06:25;;;;;;;7.47;6.78;;;;;;;;;;5070196;28;20632;-58
2022/03/30 03:08:51;;;;;;;7.68;6.97;;;;;;;;;;5068185;28;20043;-58
2022/03/30 03:11:17;;;;;;;8.75;7.35;;;;;;;;;;5075862;28;20024;-58
2022/03/30 03:13:42;;;;;;;8.13;7.32;;;;;;;;;;5072436;28;20031;-59
2022/03/30 03:16:08;;;;;;;10.02;7.75;;;;;;;;;;5073016;28;20035;-58
2022/03/30 03:18:35;;;;;;;7.43;6.82;;;;;;;;;;5070188;28;20029;-58
2022/03/30 03:21:00;;;;;;;7.45;6.80;;;;;;;;;;5073835;28;20047;-58
2022/03/30 03:23:26;;;;;;;7.95;7.03;;;;;;;;;;5070699;28;20028;-58
2022/03/30 03:25:53;;;;;;;7.28;6.63;;;;;;;;;;5070907;28;20079;-58
2022/03/30 03:28:19;;;;;;;7.55;6.85;;;;;;;;;;5067259;28;20024;-58
2022/03/30 03:30:44;;;;;;;8.55;7.65;;;;;;;;;;5067239;28;20096;-59
2022/03/30 03:33:10;;;;;;;7.47;6.85;;;;;;;;;;5067287;28;20117;-58
2022/03/30 03:35:36;;;;;;;7.13;6.45;;;;;;;;;;5070772;28;20024;-58
2022/03/30 03:38:03;;;;;;;6.53;5.93;;;;;;;;;;5066758;28;20035;-59
2022/03/30 03:40:32;;;;;;;7.10;6.47;;;;;;;;;;5068005;28;20024;-59
2022/03/30 03:42:59;;;;;;;6.70;5.97;;;;;;;;;;5066384;28;20115;-58
2022/03/30 03:45:24;;;;;;;7.93;6.95;;;;;;;;;;5066345;28;20029;-59
2022/03/30 03:47:51;;;;;;;9.02;7.55;;;;;;;;;;5069345;28;20041;-58
2022/03/30 03:50:16;;;;;;;9.30;8.10;;;;;;;;;;5073774;28;20085;-59
2022/03/30 03:52:42;;;;;;;8.63;7.93;;;;;;;;;;5070870;28;20032;-59
2022/03/30 03:55:09;;;;;;;8.35;7.38;;;;;;;;;;5073713;28;20035;-59
2022/03/30 03:57:35;;;;;;;8.15;6.72;;;;;;;;;;5071430;28;20074;-59
2022/03/30 04:00:01;;;;;;;7.55;6.75;;;;;;;;;;5069229;28;20075;-59
2022/03/30 04:02:26;;;;;;;7.18;6.47;;;;;;;;;;5067833;28;20032;-59
2022/03/30 04:04:52;;;;;;;7.45;6.82;;;;;;;;;;5069209;28;20054;-59
2022/03/30 04:07:17;;;;;;;10.57;7.75;;;;;;;;;;5068514;28;20070;-59
2022/03/30 04:09:42;;;;;;;7.07;6.43;;;;;;;;;;5068258;28;20542;-59
2022/03/30 04:12:08;;;;;;;6.47;5.97;;;;;;;;;;5073709;28;20437;-58
2022/03/30 04:14:34;;;;;;;8.27;7.53;;;;;;;;;;5066571;28;20024;-58
2022/03/30 04:16:59;;;;;;;7.40;6.70;;;;;;;;;;5068425;28;20109;-58
2022/03/30 04:19:25;;;;;;;7.85;7.15;;;;;;;;;;5070538;28;20113;-58
2022/03/30 04:21:51;;;;;;;7.25;6.65;;;;;;;;;;5070285;28;20036;-58
2022/03/30 04:24:16;;;;;;;8.77;7.88;;;;;;;;;;5072083;28;20173;-59
2022/03/30 04:26:42;;;;;;;13.20;8.70;;;;;;;;;;5067600;28;20127;-59
2022/03/30 04:29:07;;;;;;;6.93;6.32;;;;;;;;;;5069322;28;20117;-60
2022/03/30 04:31:33;;;;;;;8.43;7.57;;;;;;;;;;5071829;28;20040;-59
2022/03/30 04:33:58;;;;;;;9.15;8.23;;;;;;;;;;5068160;28;20042;-55
2022/03/30 04:36:24;;;;;;;9.32;8.43;;;;;;;;;;5072729;28;20039;-54
2022/03/30 04:38:50;;;;;;;10.23;7.78;;;;;;;;;;5075407;28;20031;-54
2022/03/30 04:41:15;;;;;;;7.40;6.45;;;;;;;;;;5069122;28;20039;-55
2022/03/30 04:43:41;;;;;;;10.60;7.80;;;;;;;;;;5070340;28;20028;-59
2022/03/30 04:46:08;;;;;;;13.77;7.75;;;;;;;;;;5068303;28;20048;-58
2022/03/30 04:48:34;;;;;;;11.38;9.23;;;;;;;;;;5072477;28;20043;-59
2022/03/30 04:51:00;;;;;;;7.25;6.60;;;;;;;;;;5073634;28;20104;-58
2022/03/30 04:53:26;;;;;;;8.25;7.50;;;;;;;;;;5074903;28;20028;-59
2022/03/30 04:55:51;;;;;;;7.25;6.70;;;;;;;;;;5071413;28;20020;-58
2022/03/30 04:58:17;;;;;;;9.02;7.82;;;;;;;;;;5068299;28;20050;-59
2022/03/30 05:00:42;;;;;;;7.53;6.82;;;;;;;;;;5071249;28;20075;-59
2022/03/30 05:03:08;;;;;;;6.55;5.95;;;;;;;;;;5075456;28;20369;-59
2022/03/30 05:05:33;;;;;;;11.30;8.27;;;;;;;;;;5073007;28;20090;-59
2022/03/30 05:07:59;;;;;;;9.07;8.15;;;;;;;;;;5071790;28;20553;-59
2022/03/30 05:10:24;;;;;;;7.93;7.13;;;;;;;;;;5071073;28;20097;-59
2022/03/30 05:12:50;;;;;;;7.18;6.53;;;;;;;;;;5071523;28;20581;-58
2022/03/30 05:15:16;;;;;;;7.68;7.00;;;;;;;;;;5073368;28;20035;-59
2022/03/30 05:17:44;;;;;;;9.68;8.18;;;;;;;;;;5073857;28;20062;-59
2022/03/30 05:20:11;;;;;;;8.23;7.53;;;;;;;;;;5073437;28;20032;-59
2022/03/30 05:22:36;;;;;;;9.55;7.43;;;;;;;;;;5056729;28;20035;-60
2022/03/30 05:25:03;;;;;;;7.80;7.10;;;;;;;;;;5072011;28;20036;-59
2022/03/30 05:27:28;;;;;;;7.60;6.90;;;;;;;;;;5072602;28;20086;-59
2022/03/30 05:29:53;;;;;;;8.25;7.28;;;;;;;;;;5070967;28;20024;-54
2022/03/30 05:32:19;;;;;;;8.85;7.32;;;;;;;;;;5071526;28;20055;-53
2022/03/30 05:34:45;;;;;;;7.45;6.75;;;;;;;;;;5073390;28;20550;-52
2022/03/30 05:37:11;;;;;;;8.63;7.38;;;;;;;;;;5073014;28;20393;-53
2022/03/30 05:39:41;;;;;;;8.38;7.60;;;;;;;;;;5071469;28;20092;-53
2022/03/30 05:42:07;;;;;;;10.45;8.43;;;;;;;;;;5071138;28;20700;-51
2022/03/30 05:44:32;;;;;;;8.00;7.40;;;;;;;;;;5070122;28;20111;-51
2022/03/30 05:46:57;;;;;;;9.10;8.20;;;;;;;;;;5064051;28;20033;-53
2022/03/30 05:49:24;;;;;;;9.07;8.13;;;;;;;;;;5064284;28;20029;-50
2022/03/30 05:51:50;;;;;;;10.15;7.80;;;;;;;;;;5069403;28;20523;-53
2022/03/30 05:54:15;;;;;;;8.57;7.82;;;;;;;;;;5069265;28;20036;-54
2022/03/30 05:59:24;;;;;;;19.58;7.22;;;;;;;;;;5066627;28;20039;-51
2022/03/30 06:01:50;;;;;;;8.52;6.80;;;;;;;;;;5070548;28;20040;-52
2022/03/30 06:04:16;;;;;;;7.45;6.88;;;;;;;;;;5069125;28;20032;-52
2022/03/30 06:06:41;;;;;;;14.98;9.50;;;;;;;;;;5070533;28;20032;-54
2022/03/30 06:09:07;;;;;;;9.38;8.48;;;;;;;;;;5065517;28;20119;-58
2022/03/30 06:11:33;;;;;;;8.60;7.80;;;;;;;;;;5069853;28;20052;-58
2022/03/30 06:15:12;;;;;;;;;;;;;;;;;;;;;
2022/03/30 06:25:54;;;;;;;10.73;9.18;;;;;;;;;;5068180;28;20072;-60
2022/03/30 06:29:23;;;;;;;;;;;;;;;;;;;;;
2022/03/30 06:31:50;;;;;;;8.63;7.93;;;;;;;;;;4987919;28;20050;-53
2022/03/30 06:34:15;;;;;;;8.10;7.32;;;;;;;;;;5007067;28;20807;-54
2022/03/30 06:36:40;;;;;;;8.30;7.60;;;;;;;;;;5057777;28;20044;-53
2022/03/30 06:39:06;;;;;;;10.85;7.80;;;;;;;;;;5068239;28;20037;-51
2022/03/30 06:41:32;;;;;;;9.73;7.60;;;;;;;;;;5072334;28;20063;-51
2022/03/30 06:43:58;;;;;;;7.97;7.25;;;;;;;;;;5073889;28;20374;-52
2022/03/30 06:46:23;;;;;;;9.07;8.35;;;;;;;;;;5072440;28;20029;-53
2022/03/30 06:48:48;;;;;;;8.90;7.70;;;;;;;;;;5072931;28;20039;-60
2022/03/30 06:51:15;;;;;;;9.73;7.68;;;;;;;;;;5070887;28;20028;-60
2022/03/30 06:53:41;;;;;;;9.98;8.52;;;;;;;;;;5064417;28;20489;-50
2022/03/30 06:56:07;;;;;;;9.52;8.00;;;;;;;;;;5070499;28;20119;-52
2022/03/30 06:58:33;;;;;;;7.72;6.93;;;;;;;;;;5067236;28;20107;-59
2022/03/30 07:00:59;;;;;;;8.48;7.72;;;;;;;;;;5067219;28;20533;-59
2022/03/30 07:03:26;;;;;;;10.63;9.63;;;;;;;;;;5065166;28;20125;-50
2022/03/30 07:05:52;;;;;;;9.82;8.90;;;;;;;;;;5055000;28;20032;-52
2022/03/30 07:11:02;;;;;;;11.98;8.45;;;;;;;;;;5070019;28;20389;-59
2022/03/30 07:13:27;;;;;;;8.60;7.80;;;;;;;;;;5071623;28;20021;-59
2022/03/30 07:15:52;;;;;;;9.85;8.23;;;;;;;;;;5070390;28;20035;-59
2022/03/30 07:18:19;;;;;;;8.13;7.00;;;;;;;;;;5069670;28;20031;-59
2022/03/30 07:20:45;;;;;;;9.23;8.43;;;;;;;;;;5064260;28;20129;-59
2022/03/30 07:23:11;;;;;;;8.23;7.53;;;;;;;;;;5062977;28;20070;-59
2022/03/30 07:25:37;;;;;;;9.10;8.32;;;;;;;;;;5066966;28;20039;-59
2022/03/30 07:28:03;;;;;;;7.95;7.18;;;;;;;;;;5066273;28;20805;-59
2022/03/30 07:30:29;;;;;;;10.45;7.70;;;;;;;;;;5064669;28;20095;-59
2022/03/30 07:32:56;;;;;;;23.60;9.27;;;;;;;;;;5071184;28;20044;-60
2022/03/30 07:35:24;;;;;;;9.38;8.50;;;;;;;;;;5065751;28;20025;-60
2022/03/30 07:37:50;;;;;;;7.85;7.07;;;;;;;;;;5063502;28;20036;-60
2022/03/30 07:40:18;;;;;;;14.27;9.50;;;;;;;;;;5062041;28;20039;-59
2022/03/30 07:42:45;;;;;;;19.63;9.52;;;;;;;;;;5070325;28;20517;-60
2022/03/30 07:45:11;;;;;;;13.40;8.80;;;;;;;;;;5069838;28;20048;-51
2022/03/30 07:47:37;;;;;;;9.35;8.45;;;;;;;;;;5067678;28;20462;-59
2022/03/30 07:50:04;;;;;;;8.32;7.53;;;;;;;;;;5064086;28;20147;-59
2022/03/30 07:52:29;;;;;;;7.82;7.03;;;;;;;;;;5068762;28;20201;-51
2022/03/30 07:54:55;;;;;;;9.50;7.38;;;;;;;;;;5065199;28;20039;-48
2022/03/30 07:57:26;;;;;;;12.20;7.85;;;;;;;;;;5071729;28;20088;-48
2022/03/30 07:59:55;;;;;;;10.35;7.13;;;;;;;;;;5072399;28;20082;-50
2022/03/30 08:02:21;;;;;;;8.35;7.55;;;;;;;;;;5071305;28;20530;-50
2022/03/30 08:04:46;;;;;;;10.85;7.70;;;;;;;;;;5074674;28;20165;-48
2022/03/30 08:07:12;;;;;;;10.68;9.50;;;;;;;;;;5071100;28;20039;-49
2022/03/30 08:09:37;;;;;;;11.70;8.82;;;;;;;;;;5067724;28;20071;-48
2022/03/30 08:12:04;;;;;;;16.45;9.05;;;;;;;;;;5065440;28;20074;-48
2022/03/30 08:14:29;;;;;;;7.88;7.10;;;;;;;;;;5063324;28;20043;-51
2022/03/30 08:16:55;;;;;;;9.05;7.97;;;;;;;;;;5064727;28;20036;-51
2022/03/30 08:19:20;;;;;;;10.30;9.25;;;;;;;;;;5070320;28;20024;-51
2022/03/30 08:24:30;;;;;;;9.70;7.97;;;;;;;;;;5069337;28;20108;-51
2022/03/30 08:26:55;;;;;;;12.27;8.85;;;;;;;;;;5071533;28;20123;-53
2022/03/30 08:29:20;;;;;;;9.57;8.68;;;;;;;;;;5069674;28;20071;-51
2022/03/30 08:31:47;;;;;;;11.25;8.63;;;;;;;;;;5065825;28;20085;-53
2022/03/30 08:34:14;;;;;;;10.93;7.93;;;;;;;;;;5071387;28;20021;-53
2022/03/30 08:36:40;;;;;;;13.27;9.40;;;;;;;;;;5068853;28;20036;-52
2022/03/30 08:39:11;;;;;;;11.35;9.00;;;;;;;;;;5067633;28;20086;-53
2022/03/30 08:41:42;;;;;;;9.00;8.10;;;;;;;;;;5067962;28;20149;-50
2022/03/30 08:44:08;;;;;;;11.38;7.65;;;;;;;;;;5072930;28;20314;-51
2022/03/30 08:46:33;;;;;;;10.50;8.13;;;;;;;;;;5071435;28;20087;-50
2022/03/30 08:48:59;;;;;;;9.00;7.72;;;;;;;;;;5068144;28;20032;-52
2022/03/30 08:51:25;;;;;;;21.35;9.25;;;;;;;;;;5073147;28;20485;-54
2022/03/30 08:53:51;;;;;;;11.75;9.77;;;;;;;;;;5070936;28;20640;-51
2022/03/30 08:56:17;;;;;;;15.80;9.85;;;;;;;;;;5073018;28;20162;-50
2022/03/30 08:58:43;;;;;;;10.00;8.95;;;;;;;;;;5066111;28;20668;-51
2022/03/30 09:01:10;;;;;;;13.70;7.53;;;;;;;;;;5065839;28;20033;-54
2022/03/30 09:03:36;;;;;;;9.45;8.55;;;;;;;;;;5069972;28;20469;-50
2022/03/30 09:06:02;;;;;;;9.55;8.65;;;;;;;;;;5067572;28;20444;-53
2022/03/30 09:08:28;;;;;;;11.30;10.15;;;;;;;;;;5070171;28;20107;-54
2022/03/30 09:10:55;;;;;;;10.23;9.20;;;;;;;;;;5068322;28;20135;-49
2022/03/30 09:13:21;;;;;;;9.90;8.90;;;;;;;;;;5069176;28;20028;-53
2022/03/30 09:15:49;;;;;;;7.78;6.90;;;;;;;;;;5068087;28;20059;-51
2022/03/30 09:18:15;;;;;;;9.00;8.10;;;;;;;;;;5071286;28;20476;-53
2022/03/30 09:20:46;;;;;;;8.75;7.95;;;;;;;;;;5071827;28;20110;-53
2022/03/30 09:23:12;;;;;;;;;;;;;;;;;;5073256;28;20036;-53
2022/03/30 09:25:39;;;;;;;8.00;7.30;;;;;;;;;;5072281;28;20337;-53
2022/03/30 09:28:05;;;;;;;6.10;5.60;;;;;;;;;;5053378;28;20089;-54
2022/03/30 09:30:30;;;;;;;9.85;8.50;;;;;;;;;;5072832;28;20032;-52
2022/03/30 09:32:58;;;;;;;14.60;8.45;;;;;;;;;;5071613;28;20043;-51
2022/03/30 09:35:34;;;;;;;9.32;8.38;;;;;;;;;;5075978;28;20048;-53
2022/03/30 09:38:11;;;;;;;9.13;8.23;;;;;;;;;;5072223;28;20175;-50
2022/03/30 09:40:47;;;;;;;9.15;7.60;;;;;;;;;;5070022;28;20024;-54
2022/03/30 09:43:14;;;;;;;9.57;8.52;;;;;;;;;;5067722;28;20059;-53
2022/03/30 09:45:40;;;;;;;8.07;6.88;;;;;;;;;;5067459;28;20102;-54
2022/03/30 09:48:23;;;;;;;10.45;8.45;;;;;;;;;;5067047;28;20040;-53
2022/03/30 09:50:52;;;;;;;10.27;8.38;;;;;;;;;;5064650;28;20497;-50
2022/03/30 09:53:23;;;;;;;9.85;8.77;;;;;;;;;;5064704;28;20128;-52
2022/03/30 09:55:58;;;;;;;8.15;7.45;;;;;;;;;;5065947;28;20533;-53
2022/03/30 09:58:25;;;;;;;7.75;7.05;;;;;;;;;;5065322;28;20307;-53
2022/03/30 10:01:24;;;;;;;9.90;8.15;;;;;;;;;;5061796;28;20181;-53
2022/03/30 10:03:55;;;;;;;7.40;6.28;;;;;;;;;;5066836;28;20428;-49
2022/03/30 10:06:22;;;;;;;13.50;8.90;;;;;;;;;;5066942;28;20042;-58
2022/03/30 10:08:49;;;;;;;7.90;7.10;;;;;;;;;;5070599;28;20036;-57
2022/03/30 10:11:16;;;;;;;11.05;8.38;;;;;;;;;;5070370;28;20043;-57
2022/03/30 10:13:43;;;;;;;16.58;9.18;;;;;;;;;;5070776;28;20032;-58
2022/03/30 10:16:10;;;;;;;10.02;9.02;;;;;;;;;;5066698;28;20024;-51
2022/03/30 10:18:36;;;;;;;8.00;7.18;;;;;;;;;;5072338;28;20119;-57
2022/03/30 10:21:07;;;;;;;8.65;7.78;;;;;;;;;;5070178;28;20117;-58
2022/03/30 10:23:41;;;;;;;26.98;8.57;;;;;;;;;;5069756;28;20028;-58
2022/03/30 10:26:25;;;;;;;7.75;6.93;;;;;;;;;;5070228;28;20032;-57
2022/03/30 10:28:58;;;;;;;8.07;7.28;;;;;;;;;;5070158;28;20103;-58
2022/03/30 10:31:23;;;;;;;12.23;10.18;;;;;;;;;;5068094;28;20043;-57
2022/03/30 10:33:48;;;;;;;9.15;8.30;;;;;;;;;;5070121;28;20036;-58
2022/03/30 10:36:29;;;;;;;8.35;7.35;;;;;;;;;;5069614;28;20089;-57
2022/03/30 10:39:14;;;;;;;8.13;7.30;;;;;;;;;;5071093;28;20032;-57
2022/03/30 10:41:53;;;;;;;8.70;7.40;;;;;;;;;;5069807;28;20851;-50
2022/03/30 10:44:41;;;;;;;8.50;7.70;;;;;;;;;;5069786;28;20228;-52
2022/03/30 10:47:25;;;;;;;6.65;6.05;;;;;;;;;;5068934;28;20036;-54
2022/03/30 10:49:54;;;;;;;6.60;6.07;;;;;;;;;;5066971;28;20119;-50
2022/03/30 10:52:41;;;;;;;8.13;7.03;;;;;;;;;;5073253;28;20072;-51
2022/03/30 10:55:13;;;;;;;7.80;7.10;;;;;;;;;;5070352;28;20032;-52
2022/03/30 10:58:20;;;;;;;9.48;7.65;;;;;;;;;;5070813;28;20052;-52
2022/03/30 11:00:45;;;;;;;9.30;7.00;;;;;;;;;;5050126;28;20025;-52
2022/03/30 11:03:20;;;;;;;10.32;8.00;;;;;;;;;;5046728;28;20608;-51
2022/03/30 11:06:05;;;;;;;8.07;7.28;;;;;;;;;;5063619;28;20044;-50
2022/03/30 11:08:33;;;;;;;8.70;7.82;;;;;;;;;;5068407;28;20378;-52
2022/03/30 11:11:25;;;;;;;11.43;7.30;;;;;;;;;;5074586;28;20036;-50
2022/03/30 11:14:21;;;;;;;7.07;6.45;;;;;;;;;;5069999;28;20172;-52
2022/03/30 11:16:48;;;;;;;6.78;5.40;;;;;;;;;;5070304;28;20024;-52
2022/03/30 11:19:14;;;;;;;7.57;6.47;;;;;;;;;;5068593;28;20040;-53
2022/03/30 11:21:53;;;;;;;7.78;6.97;;;;;;;;;;5070677;28;20032;-51
2022/03/30 11:24:19;;;;;;;8.50;6.60;;;;;;;;;;5071136;28;20567;-51
2022/03/30 11:26:47;;;;;;;7.00;6.10;;;;;;;;;;5069251;28;20036;-52
2022/03/30 11:29:41;;;;;;;10.05;7.20;;;;;;;;;;5069457;28;20039;-52
2022/03/30 11:32:19;;;;;;;8.50;7.70;;;;;;;;;;5054095;28;20119;-49
2022/03/30 11:34:54;;;;;;;6.60;6.00;;;;;;;;;;5067521;28;20072;-55
2022/03/30 11:37:30;;;;;;;6.47;5.88;;;;;;;;;;5064421;28;20030;-55
2022/03/30 11:40:04;;;;;;;6.97;6.38;;;;;;;;;;5067316;28;20064;-56
2022/03/30 11:42:29;;;;;;;7.18;6.47;;;;;;;;;;5066431;28;20097;-55
2022/03/30 11:45:12;;;;;;;6.65;6.07;;;;;;;;;;5070531;28;20061;-56
2022/03/30 11:47:46;;;;;;;10.02;7.05;;;;;;;;;;5067762;28;20497;-54
2022/03/30 11:50:13;;;;;;;6.93;6.10;;;;;;;;;;5062882;28;20050;-54
2022/03/30 11:52:39;;;;;;;7.90;7.05;;;;;;;;;;5062921;28;20470;-53
2022/03/30 11:55:07;;;;;;;7.38;6.65;;;;;;;;;;5068970;28;20044;-56
2022/03/30 11:57:38;;;;;;;6.32;5.72;;;;;;;;;;5068110;28;20029;-55
2022/03/30 12:00:08;;;;;;;;;;;;;;;;;;5070060;28;20602;-55
2022/03/30 12:02:36;;;;;;;8.60;7.15;;;;;;;;;;5062627;28;19917;-56
2022/03/30 12:05:03;;;;;;;6.45;5.95;;;;;;;;;;5063107;28;20059;-54
2022/03/30 12:07:34;;;;;;;4.93;4.45;;;;;;;;;;5062495;28;20069;-57
2022/03/30 12:09:59;;;;;;;7.13;6.43;;;;;;;;;;5065355;28;20036;-56
2022/03/30 12:12:31;;;;;;;6.88;6.30;;;;;;;;;;5069732;28;20043;-55
2022/03/30 12:15:00;;;;;;;7.35;6.22;;;;;;;;;;5072650;28;20081;-53
2022/03/30 12:17:27;;;;;;;7.18;5.82;;;;;;;;;;5067723;28;20040;-54
2022/03/30 12:19:53;;;;;;;8.75;7.93;;;;;;;;;;5066358;28;20093;-53
2022/03/30 12:22:19;;;;;;;6.45;5.88;;;;;;;;;;5064637;28;20085;-54
2022/03/30 12:24:45;;;;;;;6.90;6.22;;;;;;;;;;5057689;28;20040;-54
2022/03/30 12:27:11;;;;;;;9.50;6.65;;;;;;;;;;5063834;28;20039;-55
2022/03/30 12:29:38;;;;;;;10.88;6.32;;;;;;;;;;5049449;28;20035;-55
2022/03/30 12:32:05;;;;;;;6.55;5.95;;;;;;;;;;5058453;28;20040;-55
2022/03/30 12:34:34;;;;;;;7.63;6.53;;;;;;;;;;5063549;28;20047;-54
2022/03/30 12:37:08;;;;;;;14.18;10.32;;;;;;;;;;5056463;28;20513;-55
2022/03/30 12:39:40;;;;;;;56.75;22.92;;;;;;;;;;5057968;28;20758;-52
2022/03/30 12:42:16;;;;;;;12.88;6.78;;;;;;;;;;5063473;28;20037;-53
2022/03/30 12:44:47;;;;;;;47.47;22.70;;;;;;;;;;5062649;28;20032;-56
2022/03/30 12:47:30;;;;;;;9.32;8.43;;;;;;;;;;5059834;28;20032;-56
2022/03/30 12:50:18;;;;;;;6.93;6.10;;;;;;;;;;5064652;28;20055;-55
2022/03/30 12:52:48;;;;;;;6.32;5.82;;;;;;;;;;5062619;28;20034;-55
2022/03/30 12:55:26;;;;;;;7.82;7.18;;;;;;;;;;5062787;28;20610;-56
2022/03/30 12:58:07;;;;;;;9.95;9.13;;;;;;;;;;5061627;28;20036;-54
2022/03/30 13:00:43;;;;;;;8.27;7.63;;;;;;;;;;5068512;28;20128;-55
2022/03/30 13:03:42;;;;;;;8.25;7.55;;;;;;;;;;5068084;28;20083;-55
2022/03/30 13:06:17;;;;;;;7.65;7.05;;;;;;;;;;5034096;28;20043;-55
2022/03/30 13:08:43;;;;;;;8.13;7.53;;;;;;;;;;5065668;28;20132;-53
2022/03/30 13:11:08;;;;;;;7.03;6.53;;;;;;;;;;5066322;28;20040;-56
2022/03/30 13:13:37;;;;;;;8.63;7.93;;;;;;;;;;5068805;28;20110;-57
2022/03/30 13:16:13;;;;;;;10.65;8.68;;;;;;;;;;5068449;28;20032;-55
2022/03/30 13:18:39;;;;;;;7.38;6.78;;;;;;;;;;5070923;28;20029;-58
2022/03/30 13:21:09;;;;;;;10.23;7.43;;;;;;;;;;5066810;28;20036;-56
2022/03/30 13:23:38;;;;;;;9.25;7.53;;;;;;;;;;5066641;28;20047;-58
2022/03/30 13:26:23;;;;;;;9.85;9.13;;;;;;;;;;5069064;28;20354;-58
2022/03/30 13:28:48;;;;;;;7.97;7.35;;;;;;;;;;5069071;28;20482;-58
2022/03/30 13:31:13;;;;;;;9.85;8.65;;;;;;;;;;5065927;28;20038;-59
2022/03/30 13:33:39;;;;;;;9.48;8.63;;;;;;;;;;5064681;28;20120;-57
2022/03/30 13:36:05;;;;;;;9.07;8.23;;;;;;;;;;5064841;28;20439;-58
2022/03/30 13:38:31;;;;;;;8.48;7.43;;;;;;;;;;5065346;28;20050;-59
2022/03/30 13:40:56;;;;;;;8.05;7.45;;;;;;;;;;5063597;28;20051;-58
2022/03/30 13:43:21;;;;;;;9.55;8.77;;;;;;;;;;5062607;28;20032;-58
2022/03/30 13:45:47;;;;;;;8.43;7.72;;;;;;;;;;5062892;28;20044;-58
2022/03/30 13:48:12;;;;;;;7.60;6.85;;;;;;;;;;5063604;28;20040;-57
2022/03/30 13:50:37;;;;;;;6.57;6.00;;;;;;;;;;5063245;28;20063;-58
2022/03/30 13:53:03;;;;;;;6.65;6.05;;;;;;;;;;5063793;28;20542;-58
2022/03/30 13:55:33;;;;;;;8.90;7.35;;;;;;;;;;5063195;28;20618;-56
2022/03/30 13:57:59;;;;;;;7.45;6.75;;;;;;;;;;5045493;28;20036;-58
2022/03/30 14:00:26;;;;;;;9.85;8.40;;;;;;;;;;5063390;28;20131;-58
2022/03/30 14:02:56;;;;;;;6.90;6.30;;;;;;;;;;5066229;28;20067;-52
2022/03/30 14:05:22;;;;;;;7.32;6.82;;;;;;;;;;5067867;28;20542;-54
2022/03/30 14:07:48;;;;;;;7.20;6.57;;;;;;;;;;5066968;28;20059;-54
2022/03/30 14:10:13;;;;;;;6.95;6.45;;;;;;;;;;5067331;28;20556;-58
2022/03/30 14:12:39;;;;;;;6.82;6.32;;;;;;;;;;5066188;28;20051;-53
2022/03/30 14:15:06;;;;;;;7.43;6.80;;;;;;;;;;5060772;28;20032;-52
2022/03/30 14:17:31;;;;;;;8.75;7.57;;;;;;;;;;5069019;28;20032;-50
2022/03/30 14:19:56;;;;;;;10.15;8.25;;;;;;;;;;5068287;28;20039;-51
2022/03/30 14:22:22;;;;;;;7.65;6.55;;;;;;;;;;5070108;28;20036;-52
2022/03/30 14:24:47;;;;;;;5.90;5.40;;;;;;;;;;5064244;28;20458;-56
2022/03/30 14:27:14;;;;;;;6.28;5.40;;;;;;;;;;5062638;28;20386;-51
2022/03/30 14:29:40;;;;;;;5.85;5.38;;;;;;;;;;5068320;28;20064;-50
2022/03/30 14:32:06;;;;;;;5.57;5.18;;;;;;;;;;5069930;28;20453;-53
2022/03/30 14:34:31;;;;;;;5.75;5.25;;;;;;;;;;5067361;28;20090;-54
2022/03/30 14:36:57;;;;;;;7.07;6.38;;;;;;;;;;5066121;28;20028;-52
2022/03/30 14:39:22;;;;;;;5.72;5.22;;;;;;;;;;5065175;28;20107;-54
2022/03/30 14:41:50;;;;;;;7.13;5.78;;;;;;;;;;5066962;28;20127;-50
2022/03/30 14:44:15;;;;;;;7.05;6.45;;;;;;;;;;5069896;28;20033;-56
2022/03/30 14:46:41;;;;;;;6.35;5.85;;;;;;;;;;5070261;28;20037;-56
2022/03/30 14:49:06;;;;;;;6.05;5.55;;;;;;;;;;5068470;28;20043;-56
2022/03/30 14:51:32;;;;;;;7.22;6.63;;;;;;;;;;5068285;28;20046;-51
2022/03/30 14:53:57;;;;;;;6.80;6.30;;;;;;;;;;5068935;28;20450;-55
2022/03/30 14:56:24;;;;;;;6.20;5.70;;;;;;;;;;5066037;28;20519;-54
2022/03/30 14:58:49;;;;;;;10.18;7.75;;;;;;;;;;5067863;28;20367;-52
2022/03/30 15:01:15;;;;;;;6.00;5.50;;;;;;;;;;5067910;28;20042;-51
2022/03/30 15:03:40;;;;;;;7.65;6.95;;;;;;;;;;5063387;28;20331;-54
2022/03/30 15:06:05;;;;;;;7.68;6.97;;;;;;;;;;5067013;28;20047;-54
2022/03/30 15:08:31;;;;;;;6.78;6.18;;;;;;;;;;5069553;28;20061;-53